Time;durP1;ratioP1;P1;durP2;ratioP2;P2;SDS_P1;SDS_P2;PMS_P1;PMS_P2;Temp;Humidity;BMP_temperature;BMP_pressure;BME280_temperature;BME280_humidity;BME280_pressure;Samples;Min_cycle;Max_cycle;Signal;HPM_P1;HPM_P2
2024/04/14 00:02:02;;;;;;;7.68;4.03;;;17.90;99.90;;;;;;13183694;26;20466;-89
2024/04/14 00:08:05;;;;;;;8.13;3.80;;;17.80;99.90;;;;;;13204471;26;20010;-88
2024/04/14 00:14:07;;;;;;;6.07;3.10;;;17.50;99.90;;;;;;13189683;26;20006;-87
2024/04/14 00:20:11;;;;;;;6.18;3.20;;;17.40;99.90;;;;;;13178937;26;20006;-89
2024/04/14 00:26:14;;;;;;;6.03;2.95;;;17.30;99.90;;;;;;13186178;26;20009;-88
2024/04/14 00:32:16;;;;;;;6.18;2.80;;;17.10;99.90;;;;;;13187408;26;20005;-86
2024/04/14 00:38:18;;;;;;;7.88;2.80;;;17.00;99.90;;;;;;13177253;26;20024;-89
2024/04/14 00:44:20;;;;;;;4.28;2.00;;;16.80;99.90;;;;;;13172276;26;20010;-86
2024/04/14 00:50:23;;;;;;;4.63;2.03;;;16.60;99.90;;;;;;13190372;26;20009;-88
2024/04/14 00:56:27;;;;;;;6.17;1.90;;;16.60;99.90;;;;;;13184923;26;20451;-87
2024/04/14 01:02:30;;;;;;;5.20;2.10;;;16.40;99.90;;;;;;13182330;26;20021;-85
2024/04/14 01:08:32;;;;;;;3.88;1.90;;;16.20;99.90;;;;;;13177025;26;20335;-87
2024/04/14 01:14:34;;;;;;;3.63;1.80;;;16.10;99.90;;;;;;13197021;26;20010;-86
2024/04/14 01:20:36;;;;;;;4.82;1.65;;;16.00;99.90;;;;;;13177525;26;20016;-86
2024/04/14 01:26:39;;;;;;;3.40;1.58;;;15.90;99.90;;;;;;13170763;26;20447;-86
2024/04/14 01:32:41;;;;;;;3.60;1.63;;;15.70;99.90;;;;;;13144489;26;20020;-87
2024/04/14 01:38:43;;;;;;;5.30;1.55;;;15.70;99.90;;;;;;13176650;26;20088;-85
2024/04/14 01:44:45;;;;;;;4.35;2.00;;;15.50;99.90;;;;;;13187466;26;20021;-86
2024/04/14 01:50:48;;;;;;;4.63;1.92;;;15.50;99.90;;;;;;13194715;26;20001;-85
2024/04/14 01:56:50;;;;;;;4.22;1.80;;;15.30;99.90;;;;;;13159545;26;20339;-86
2024/04/14 02:02:54;;;;;;;4.70;1.83;;;15.20;99.90;;;;;;13171946;26;20342;-86
2024/04/14 02:08:57;;;;;;;3.70;1.52;;;15.10;99.90;;;;;;13170669;26;20459;-86
2024/04/14 02:14:58;;;;;;;5.25;1.85;;;15.10;99.90;;;;;;13181279;26;20347;-85
2024/04/14 02:21:00;;;;;;;7.90;2.08;;;14.90;99.90;;;;;;13229054;26;20473;-87
2024/04/14 02:27:03;;;;;;;5.57;1.75;;;14.80;99.90;;;;;;13227673;26;20021;-86
2024/04/14 02:33:05;;;;;;;3.85;1.50;;;14.80;99.90;;;;;;13187161;26;20007;-86
2024/04/14 02:39:07;;;;;;;6.85;1.98;;;14.70;99.90;;;;;;13224418;26;20016;-86
2024/04/14 02:45:09;;;;;;;4.80;1.67;;;14.60;99.90;;;;;;13191398;26;20015;-85
2024/04/14 02:51:12;;;;;;;2.72;1.23;;;14.60;99.90;;;;;;13160439;26;20431;-85
2024/04/14 02:57:14;;;;;;;5.35;1.50;;;14.50;99.90;;;;;;13197888;26;20004;-86
2024/04/14 03:03:15;;;;;;;9.65;2.13;;;14.50;99.90;;;;;;13193310;26;20014;-86
2024/04/14 03:09:18;;;;;;;5.75;2.03;;;14.50;99.90;;;;;;13188542;26;20008;-88
2024/04/14 03:15:19;;;;;;;8.43;2.10;;;14.50;99.90;;;;;;13171059;26;20006;-86
2024/04/14 03:21:22;;;;;;;8.95;1.80;;;14.40;99.90;;;;;;13175843;26;20021;-86
2024/04/14 03:27:25;;;;;;;7.03;2.30;;;14.30;99.90;;;;;;13149240;26;20001;-86
2024/04/14 03:33:29;;;;;;;4.30;1.80;;;14.40;99.90;;;;;;13178149;26;20005;-86
2024/04/14 03:39:31;;;;;;;7.47;2.22;;;14.20;99.90;;;;;;13204727;26;20016;-86
2024/04/14 03:45:33;;;;;;;6.55;2.95;;;14.20;99.90;;;;;;13191969;26;20474;-87
2024/04/14 03:51:35;;;;;;;8.00;2.20;;;14.20;99.90;;;;;;13183317;26;20021;-85
2024/04/14 03:57:37;;;;;;;6.97;2.40;;;14.20;99.90;;;;;;13159409;26;20025;-84
2024/04/14 04:03:39;;;;;;;8.38;2.25;;;14.10;99.90;;;;;;13176050;26;20013;-84
2024/04/14 04:09:41;;;;;;;7.70;2.50;;;14.10;99.90;;;;;;13178230;26;20483;-86
2024/04/14 04:15:54;;;;;;;8.60;2.85;;;14.00;99.90;;;;;;13196934;26;20017;-88
2024/04/14 04:21:57;;;;;;;6.47;2.70;;;14.00;99.90;;;;;;13152087;26;20335;-87
2024/04/14 04:27:59;;;;;;;8.77;2.58;;;13.90;99.90;;;;;;13144289;26;20002;-87
2024/04/14 04:34:01;;;;;;;7.90;2.33;;;13.80;99.90;;;;;;13170361;26;20061;-88
2024/04/14 04:40:03;;;;;;;5.28;2.25;;;13.70;99.90;;;;;;13184026;26;20005;-86
2024/04/14 04:46:06;;;;;;;15.65;2.92;;;13.50;99.90;;;;;;13160161;26;20003;-87
2024/04/14 04:52:08;;;;;;;9.45;2.30;;;13.50;99.90;;;;;;13170507;26;20012;-86
2024/04/14 04:58:13;;;;;;;9.80;2.30;;;13.50;99.90;;;;;;13165096;26;20347;-86
2024/04/14 05:04:15;;;;;;;10.30;2.15;;;13.50;99.90;;;;;;13157721;26;20013;-86
2024/04/14 05:10:18;;;;;;;10.80;1.80;;;13.50;99.90;;;;;;13173594;26;20025;-84
2024/04/14 05:16:20;;;;;;;6.72;1.90;;;13.40;99.90;;;;;;13172036;26;20029;-85
2024/04/14 05:22:22;;;;;;;6.00;1.70;;;13.60;99.90;;;;;;13147740;26;20018;-86
2024/04/14 05:28:24;;;;;;;7.75;1.58;;;13.30;99.90;;;;;;13137539;26;20013;-85
2024/04/14 05:34:26;;;;;;;4.00;1.08;;;13.20;99.90;;;;;;13161321;26;20072;-87
2024/04/14 05:40:28;;;;;;;6.05;0.95;;;13.30;99.90;;;;;;13178015;26;20090;-86
2024/04/14 05:46:30;;;;;;;5.40;1.00;;;13.10;99.90;;;;;;13182249;26;20469;-87
2024/04/14 05:52:32;;;;;;;6.82;1.20;;;12.90;99.90;;;;;;13170502;26;20010;-86
2024/04/14 05:58:34;;;;;;;4.28;0.98;;;13.00;99.90;;;;;;13169342;26;20005;-85
2024/04/14 06:04:36;;;;;;;3.20;0.93;;;13.30;99.90;;;;;;13183769;26;20020;-86
2024/04/14 06:10:38;;;;;;;5.00;0.70;;;13.30;99.90;;;;;;13182312;26;20083;-86
2024/04/14 06:16:40;;;;;;;2.65;0.80;;;13.20;99.90;;;;;;13207177;26;20002;-87
2024/04/14 06:22:42;;;;;;;2.45;0.65;;;13.20;99.90;;;;;;13201223;26;20001;-89
2024/04/14 06:28:44;;;;;;;4.28;0.95;;;13.00;99.90;;;;;;13194683;26;20021;-85
2024/04/14 06:34:46;;;;;;;4.32;1.10;;;13.00;99.90;;;;;;13190645;26;20028;-87
2024/04/14 06:40:48;;;;;;;5.82;0.98;;;12.80;99.90;;;;;;13167631;26;20002;-86
2024/04/14 06:46:50;;;;;;;7.57;1.15;;;12.80;99.90;;;;;;13158443;26;20017;-86
2024/04/14 06:52:52;;;;;;;4.05;0.98;;;12.40;99.90;;;;;;13150108;26;20001;-87
2024/04/14 06:58:55;;;;;;;5.80;0.82;;;12.50;99.90;;;;;;13179158;26;20750;-88
2024/04/14 07:04:57;;;;;;;5.60;0.73;;;12.60;99.90;;;;;;13175700;26;20020;-85
2024/04/14 07:10:59;;;;;;;5.40;0.88;;;12.70;99.90;;;;;;13161832;26;20018;-85
2024/04/14 07:17:02;;;;;;;3.67;0.90;;;13.30;99.90;;;;;;13163699;26;20491;-86
2024/04/14 07:23:04;;;;;;;6.07;1.10;;;13.10;99.90;;;;;;13159485;26;20005;-86
2024/04/14 07:29:06;;;;;;;7.30;1.20;;;12.90;99.90;;;;;;13155490;26;20654;-86
2024/04/14 07:35:08;;;;;;;5.60;0.98;;;12.70;99.90;;;;;;13160600;26;20006;-86
2024/04/14 07:41:10;;;;;;;4.68;0.95;;;12.80;99.90;;;;;;13188814;26;20014;-84
2024/04/14 07:47:12;;;;;;;2.80;0.60;;;12.70;99.90;;;;;;13150787;26;20003;-85
2024/04/14 07:53:15;;;;;;;5.30;0.77;;;13.10;99.90;;;;;;13187528;26;20009;-85
2024/04/14 07:59:17;;;;;;;4.20;0.93;;;13.10;99.90;;;;;;13178982;26;20002;-88
2024/04/14 08:05:19;;;;;;;4.65;0.75;;;13.00;99.90;;;;;;13169545;26;20010;-86
2024/04/14 08:11:21;;;;;;;4.03;0.90;;;13.20;99.90;;;;;;13189902;26;20001;-87
2024/04/14 08:17:23;;;;;;;3.45;0.80;;;13.30;99.90;;;;;;13182022;26;20117;-88
2024/04/14 08:23:26;;;;;;;4.50;0.80;;;13.10;99.90;;;;;;13197820;26;20017;-87
2024/04/14 08:29:29;;;;;;;4.15;1.00;;;13.40;99.90;;;;;;13157403;26;20363;-87
2024/04/14 08:35:31;;;;;;;4.82;0.70;;;13.20;99.90;;;;;;13159430;26;20450;-86
2024/04/14 08:41:35;;;;;;;6.25;0.77;;;13.40;99.90;;;;;;13150900;26;20018;-86
2024/04/14 08:47:38;;;;;;;5.15;0.73;;;13.20;99.90;;;;;;13162658;26;20007;-86
2024/04/14 08:53:43;;;;;;;7.93;1.77;;;13.50;99.90;;;;;;13171838;26;20558;-87
2024/04/14 08:59:49;;;;;;;4.43;1.08;;;13.60;99.90;;;;;;13210465;26;20020;-85
2024/04/14 09:05:53;;;;;;;4.28;0.80;;;13.60;99.90;;;;;;13164862;26;20021;-85
2024/04/14 09:12:00;;;;;;;3.17;0.73;;;13.70;99.90;;;;;;13176602;26;20002;-85
2024/04/14 09:18:03;;;;;;;4.13;1.17;;;13.70;99.90;;;;;;13184152;26;20381;-85
2024/04/14 09:24:05;;;;;;;7.28;1.42;;;13.60;99.90;;;;;;13175985;26;20021;-85
2024/04/14 09:30:14;;;;;;;6.25;1.67;;;13.80;99.90;;;;;;13163241;26;20064;-86
2024/04/14 09:36:23;;;;;;;5.07;1.08;;;14.00;99.90;;;;;;13135593;26;20021;-87
2024/04/14 09:42:25;;;;;;;5.82;1.17;;;14.20;99.90;;;;;;13180168;26;20006;-86
2024/04/14 09:48:28;;;;;;;7.00;1.00;;;14.40;99.90;;;;;;13172784;26;20091;-85
2024/04/14 09:54:31;;;;;;;8.82;1.00;;;14.40;99.90;;;;;;13203077;26;20003;-87
2024/04/14 10:00:34;;;;;;;4.32;1.17;;;14.20;99.90;;;;;;13221698;26;19990;-87
2024/04/14 10:06:39;;;;;;;4.70;1.05;;;14.70;99.90;;;;;;13208688;26;19994;-88
2024/04/14 10:12:41;;;;;;;3.72;0.93;;;14.70;99.90;;;;;;13227794;26;20005;-88
2024/04/14 10:18:44;;;;;;;5.00;1.13;;;14.50;99.90;;;;;;13207667;26;20017;-86
2024/04/14 10:24:49;;;;;;;5.15;0.95;;;14.40;99.90;;;;;;13141870;26;20006;-88
2024/04/14 10:31:03;;;;;;;8.57;1.33;;;14.30;99.90;;;;;;13156737;26;20103;-89
2024/04/14 10:37:05;;;;;;;6.80;1.13;;;14.40;99.90;;;;;;13190160;26;19997;-88
2024/04/14 10:43:13;;;;;;;3.38;0.57;;;14.60;99.90;;;;;;13197724;26;20021;-87
2024/04/14 10:49:16;;;;;;;3.72;1.13;;;15.00;99.90;;;;;;13168944;26;20020;-87
2024/04/14 10:55:18;;;;;;;6.60;0.93;;;15.30;99.90;;;;;;13187665;26;20466;-87
2024/04/14 11:01:20;;;;;;;6.47;1.10;;;15.20;99.90;;;;;;13184726;26;20006;-86
2024/04/14 11:07:22;;;;;;;4.47;1.05;;;15.20;99.90;;;;;;13172170;26;20016;-86
2024/04/14 11:13:27;;;;;;;4.60;1.00;;;15.00;99.90;;;;;;13195632;26;20006;-85
2024/04/14 11:19:30;;;;;;;3.08;0.75;;;15.10;99.90;;;;;;13175765;26;20040;-88
2024/04/14 11:25:33;;;;;;;4.85;0.90;;;15.60;99.90;;;;;;13187931;26;20002;-86
2024/04/14 11:31:36;;;;;;;4.20;0.80;;;15.20;99.90;;;;;;13178056;26;20005;-86
2024/04/14 11:37:43;;;;;;;6.70;0.83;;;15.60;99.90;;;;;;13158649;26;20017;-87
2024/04/14 11:43:45;;;;;;;3.20;0.88;;;15.30;99.90;;;;;;13168359;26;20007;-86
2024/04/14 11:49:47;;;;;;;3.78;0.60;;;15.60;99.90;;;;;;13178259;26;20001;-87
2024/04/14 11:55:49;;;;;;;3.28;0.70;;;15.50;99.90;;;;;;13191226;26;20017;-86
2024/04/14 12:01:52;;;;;;;4.03;0.80;;;15.30;99.90;;;;;;13148134;26;20012;-88
2024/04/14 12:07:54;;;;;;;3.30;0.65;;;15.20;99.90;;;;;;13178317;26;20423;-88
2024/04/14 12:13:56;;;;;;;7.43;1.00;;;15.20;99.90;;;;;;13179091;26;20017;-87
2024/04/14 12:19:58;;;;;;;4.70;0.90;;;15.30;99.90;;;;;;13169797;26;20006;-85
2024/04/14 12:26:00;;;;;;;5.65;0.82;;;15.60;99.90;;;;;;13202809;26;20024;-86
2024/04/14 12:32:03;;;;;;;3.58;0.68;;;15.50;99.90;;;;;;13170038;26;19998;-86
2024/04/14 12:38:05;;;;;;;5.90;1.00;;;15.70;99.90;;;;;;13160870;26;20550;-85
2024/04/14 12:44:07;;;;;;;9.27;1.05;;;15.00;99.90;;;;;;13178585;26;20128;-86
2024/04/14 12:50:09;;;;;;;6.63;1.30;;;14.70;99.90;;;;;;13170784;26;20017;-85
2024/04/14 12:56:11;;;;;;;5.25;0.90;;;15.40;99.90;;;;;;13193557;26;20017;-84
2024/04/14 13:02:13;;;;;;;2.92;0.90;;;15.70;99.90;;;;;;13179493;26;20016;-87
2024/04/14 13:08:15;;;;;;;5.95;0.90;;;15.40;99.90;;;;;;13166381;26;20353;-85
2024/04/14 13:14:17;;;;;;;4.63;0.60;;;15.30;99.90;;;;;;13160318;26;20012;-84
2024/04/14 13:20:19;;;;;;;3.75;0.70;;;15.80;99.90;;;;;;13161624;26;20451;-86
2024/04/14 13:26:21;;;;;;;4.75;0.90;;;15.40;99.90;;;;;;13156096;26;20005;-86
2024/04/14 13:32:23;;;;;;;4.45;0.60;;;15.30;99.90;;;;;;13155068;26;20013;-86
2024/04/14 13:38:25;;;;;;;7.10;1.15;;;15.40;99.90;;;;;;13198057;26;20002;-88
2024/04/14 13:44:27;;;;;;;4.80;0.90;;;15.00;99.90;;;;;;13152012;26;20017;-86
2024/04/14 13:50:30;;;;;;;5.32;0.98;;;15.20;99.90;;;;;;13168900;26;20004;-84
2024/04/14 13:56:32;;;;;;;3.97;0.77;;;15.10;99.90;;;;;;13152353;26;20010;-86
2024/04/14 14:02:34;;;;;;;5.05;1.10;;;15.40;99.90;;;;;;13163527;26;20120;-85
2024/04/14 14:08:36;;;;;;;7.90;1.00;;;14.90;99.90;;;;;;13160892;26;20458;-84
2024/04/14 14:14:40;;;;;;;4.53;1.00;;;14.80;99.90;;;;;;13185064;26;20024;-88
2024/04/14 14:20:42;;;;;;;4.27;0.87;;;15.00;99.90;;;;;;13213424;26;20477;-85
2024/04/14 14:26:44;;;;;;;4.90;0.82;;;15.40;99.90;;;;;;13188116;26;20025;-87
2024/04/14 14:32:46;;;;;;;5.10;0.95;;;15.70;99.90;;;;;;13177748;26;20111;-86
2024/04/14 14:38:48;;;;;;;6.90;0.85;;;15.80;99.90;;;;;;13197116;26;20099;-84
2024/04/14 14:44:50;;;;;;;3.22;0.88;;;15.00;99.90;;;;;;13212842;26;20381;-86
2024/04/14 14:50:52;;;;;;;3.10;0.75;;;15.20;99.90;;;;;;13177575;26;20013;-84
2024/04/14 14:56:54;;;;;;;4.65;0.75;;;15.90;99.90;;;;;;13201122;26;20017;-84
2024/04/14 15:02:57;;;;;;;2.88;0.70;;;15.80;99.90;;;;;;13197307;26;20010;-87
2024/04/14 15:08:59;;;;;;;4.20;0.80;;;15.30;99.90;;;;;;13192037;26;20012;-85
2024/04/14 15:15:01;;;;;;;4.03;0.90;;;15.50;99.90;;;;;;13167762;26;20020;-84
2024/04/14 15:21:03;;;;;;;3.50;1.00;;;15.80;99.90;;;;;;13162002;26;22188;-84
2024/04/14 15:27:05;;;;;;;5.10;0.80;;;15.50;99.90;;;;;;13179270;26;20020;-85
2024/04/14 15:33:07;;;;;;;4.28;1.00;;;14.80;99.90;;;;;;13190947;26;20016;-84
2024/04/14 15:39:10;;;;;;;3.03;0.90;;;15.20;99.90;;;;;;13138542;26;20339;-86
2024/04/14 15:45:12;;;;;;;5.13;1.00;;;15.10;99.90;;;;;;13239520;21;20023;-77
2024/04/14 15:51:17;;;;;;;2.63;0.65;;;14.70;99.90;;;;;;13355478;26;20044;-77
2024/04/14 15:57:21;;;;;;;2.95;1.25;;;14.80;99.90;;;;;;13357952;26;20004;-77
2024/04/14 16:03:35;;;;;;;4.50;1.03;;;14.70;99.90;;;;;;13356524;26;20344;-76
2024/04/14 16:09:37;;;;;;;6.35;1.30;;;14.60;99.90;;;;;;13347525;26;20293;-77
2024/04/14 16:15:39;;;;;;;3.05;0.82;;;14.50;99.90;;;;;;13353665;26;20012;-76
2024/04/14 16:21:42;;;;;;;5.10;1.02;;;14.40;99.90;;;;;;13339012;26;20004;-76
2024/04/14 16:27:44;;;;;;;7.85;1.00;;;14.20;99.90;;;;;;13344270;26;20483;-77
2024/04/14 16:33:46;;;;;;;7.47;1.20;;;14.10;99.90;;;;;;13337277;26;20467;-77
2024/04/14 16:39:49;;;;;;;3.85;0.90;;;14.20;99.90;;;;;;13347487;26;20019;-75
2024/04/14 16:45:51;;;;;;;3.83;0.82;;;14.30;99.90;;;;;;13357415;26;20017;-77
2024/04/14 16:51:53;;;;;;;3.83;1.10;;;14.20;99.90;;;;;;13357061;26;20032;-76
2024/04/14 16:57:56;;;;;;;7.22;0.77;;;14.00;99.90;;;;;;13338309;26;20024;-77
2024/04/14 17:04:01;;;;;;;3.45;0.77;;;13.90;99.90;;;;;;13382365;26;20012;-78
2024/04/14 17:10:04;;;;;;;2.15;0.60;;;13.80;99.90;;;;;;13341980;26;20012;-77
2024/04/14 17:16:07;;;;;;;3.15;0.88;;;13.80;99.90;;;;;;13346806;26;20451;-77
2024/04/14 17:22:09;;;;;;;3.25;0.70;;;13.70;99.90;;;;;;13341069;26;20000;-77
2024/04/14 17:28:11;;;;;;;2.47;0.70;;;13.60;99.90;;;;;;13357760;26;20584;-77
2024/04/14 17:34:16;;;;;;;1.35;0.50;;;13.50;99.90;;;;;;13360023;26;20449;-77
2024/04/14 17:40:19;;;;;;;2.95;0.68;;;13.40;99.90;;;;;;13364204;26;20039;-77
2024/04/14 17:46:21;;;;;;;3.58;0.80;;;13.40;99.90;;;;;;13359916;26;20019;-77
2024/04/14 17:52:23;;;;;;;6.30;0.70;;;13.30;99.90;;;;;;13356526;26;20487;-77
2024/04/14 17:58:25;;;;;;;4.15;0.95;;;13.00;99.90;;;;;;13368390;26;20866;-77
2024/04/14 18:04:28;;;;;;;7.20;1.25;;;12.90;99.90;;;;;;13357297;26;20011;-77
2024/04/14 18:10:30;;;;;;;4.00;1.00;;;12.80;99.90;;;;;;13366978;26;20456;-77
2024/04/14 18:16:32;;;;;;;5.38;1.02;;;12.60;99.90;;;;;;13354750;26;20441;-77
2024/04/14 18:22:34;;;;;;;3.83;1.05;;;12.60;99.90;;;;;;13345648;26;20004;-77
2024/04/14 18:28:36;;;;;;;6.28;0.80;;;12.50;99.90;;;;;;13328297;26;20027;-77
2024/04/14 18:34:38;;;;;;;2.97;0.77;;;12.70;99.90;;;;;;13373249;26;20496;-77
2024/04/14 18:40:41;;;;;;;2.92;0.77;;;12.60;99.90;;;;;;13387609;26;20062;-77
2024/04/14 18:46:43;;;;;;;1.65;0.60;;;12.80;99.90;;;;;;13385837;26;20016;-77
2024/04/14 18:52:46;;;;;;;3.20;0.77;;;12.90;99.90;;;;;;13363143;26;20457;-78
2024/04/14 18:58:48;;;;;;;8.05;1.08;;;12.80;99.90;;;;;;13370516;26;20022;-78
2024/04/14 19:04:50;;;;;;;2.30;0.77;;;12.80;99.90;;;;;;13342226;26;20015;-79
2024/04/14 19:10:52;;;;;;;3.45;0.93;;;12.60;99.90;;;;;;13361811;26;20004;-79
2024/04/14 19:16:54;;;;;;;4.45;0.95;;;12.40;99.90;;;;;;13362186;26;20007;-77
2024/04/14 19:22:56;;;;;;;2.85;0.85;;;12.40;99.90;;;;;;13361548;26;20014;-79
2024/04/14 19:29:00;;;;;;;5.45;1.05;;;12.60;99.90;;;;;;13339600;26;20008;-79
2024/04/14 19:35:02;;;;;;;4.40;0.80;;;12.60;99.90;;;;;;13367606;26;20036;-79
2024/04/14 19:41:05;;;;;;;3.80;0.70;;;12.50;99.90;;;;;;13357454;26;20019;-78
2024/04/14 19:47:11;;;;;;;4.13;0.85;;;12.50;99.90;;;;;;13357952;26;20012;-79
2024/04/14 19:53:13;;;;;;;2.70;0.63;;;12.20;99.90;;;;;;13346902;26;20023;-79
2024/04/14 19:59:16;;;;;;;4.05;0.80;;;12.30;99.90;;;;;;13360637;26;20000;-79
2024/04/14 20:05:18;;;;;;;3.47;0.93;;;12.40;99.90;;;;;;13360790;26;20019;-79
2024/04/14 20:11:20;;;;;;;5.30;0.90;;;12.10;99.90;;;;;;13351899;26;20340;-79
2024/04/14 20:17:23;;;;;;;5.13;0.90;;;12.10;99.90;;;;;;13353972;26;20024;-79
2024/04/14 20:23:25;;;;;;;3.70;0.95;;;12.20;99.90;;;;;;13344674;26;20326;-79
2024/04/14 20:29:27;;;;;;;6.72;0.82;;;12.00;99.90;;;;;;13342027;26;20004;-79
2024/04/14 20:35:29;;;;;;;10.55;1.20;;;11.80;99.90;;;;;;13351280;26;20044;-79
2024/04/14 20:41:31;;;;;;;2.92;0.60;;;11.90;99.90;;;;;;13360534;26;20356;-79
2024/04/14 20:47:33;;;;;;;5.50;0.90;;;11.80;99.90;;;;;;13357416;26;20008;-78
2024/04/14 20:53:35;;;;;;;3.90;0.85;;;11.80;99.90;;;;;;13355130;26;20019;-79
2024/04/14 20:59:37;;;;;;;5.10;1.05;;;11.90;99.90;;;;;;13364941;26;20720;-78
2024/04/14 21:06:05;;;;;;;2.70;0.82;;;11.90;99.90;;;;;;13351698;26;20011;-79
2024/04/14 21:12:07;;;;;;;5.72;0.73;;;11.90;99.90;;;;;;13344364;26;20012;-79
2024/04/14 21:18:09;;;;;;;4.70;0.73;;;11.80;99.90;;;;;;13355561;26;20020;-79
2024/04/14 21:24:11;;;;;;;6.38;0.82;;;11.70;99.90;;;;;;13366762;26;20071;-79
2024/04/14 21:30:14;;;;;;;4.65;1.10;;;11.70;99.90;;;;;;13341027;26;20004;-76
2024/04/14 21:36:16;;;;;;;4.75;0.80;;;11.70;99.90;;;;;;13355726;26;20410;-79
2024/04/14 21:42:19;;;;;;;2.70;0.65;;;11.70;99.90;;;;;;13367391;26;20000;-79
2024/04/14 21:48:22;;;;;;;2.67;0.60;;;11.70;99.90;;;;;;13349501;26;20004;-79
2024/04/14 21:54:24;;;;;;;2.65;0.80;;;11.60;99.90;;;;;;13393766;26;20003;-79
2024/04/14 22:00:26;;;;;;;4.68;0.80;;;11.70;99.90;;;;;;13348635;26;20348;-79
2024/04/14 22:06:28;;;;;;;6.85;0.80;;;11.60;99.90;;;;;;13360526;26;20448;-79
2024/04/14 22:12:30;;;;;;;5.13;0.70;;;11.60;99.90;;;;;;13359917;26;20596;-79
2024/04/14 22:18:33;;;;;;;3.05;1.00;;;11.70;99.90;;;;;;13355136;26;20000;-79
2024/04/14 22:24:35;;;;;;;3.83;0.80;;;11.70;99.90;;;;;;13356255;26;20009;-79
2024/04/14 22:30:37;;;;;;;3.35;0.85;;;11.40;99.90;;;;;;13364880;26;20452;-79
2024/04/14 22:36:39;;;;;;;4.82;0.90;;;11.20;99.90;;;;;;13352592;26;20000;-79
2024/04/14 22:42:42;;;;;;;4.55;0.80;;;11.10;99.90;;;;;;13355876;26;20019;-79
2024/04/14 22:48:44;;;;;;;2.47;0.80;;;11.10;99.90;;;;;;13348421;26;20033;-79
2024/04/14 22:54:49;;;;;;;2.38;0.70;;;11.00;99.90;;;;;;13370957;26;20003;-79
2024/04/14 23:00:51;;;;;;;9.63;1.10;;;11.00;99.90;;;;;;13383486;26;20532;-80
2024/04/14 23:06:53;;;;;;;4.53;0.60;;;10.90;99.90;;;;;;13366090;26;20469;-79
2024/04/14 23:12:56;;;;;;;4.22;0.70;;;10.50;99.90;;;;;;13353094;26;20012;-79
2024/04/14 23:18:58;;;;;;;5.10;0.93;;;10.90;99.90;;;;;;13354107;26;20009;-80
2024/04/14 23:25:00;;;;;;;4.85;0.95;;;10.70;99.90;;;;;;13365395;26;20099;-79
2024/04/14 23:31:02;;;;;;;4.50;0.80;;;10.70;99.90;;;;;;13327901;26;20016;-79
2024/04/14 23:37:04;;;;;;;5.22;0.93;;;10.70;99.90;;;;;;13342228;26;20023;-79
2024/04/14 23:43:06;;;;;;;2.85;0.75;;;10.40;99.90;;;;;;13356291;26;20011;-78
2024/04/14 23:49:08;;;;;;;8.25;1.00;;;10.70;99.90;;;;;;13264934;26;20005;-79
2024/04/14 23:55:11;;;;;;;4.30;0.90;;;10.70;99.90;;;;;;13272248;26;20468;-79
